createdAt,value
2017-08-09T00:00:21.018Z,16.5
2017-08-09T00:01:22.412Z,16.6
2017-08-09T00:02:23.788Z,16.6
2017-08-09T00:03:26.172Z,16.5
2017-08-09T00:04:27.552Z,16.5
2017-08-09T00:05:28.924Z,16.6
2017-08-09T00:06:30.304Z,16.5
2017-08-09T00:07:31.687Z,16.6
2017-08-09T00:08:33.056Z,16.5
2017-08-09T00:09:34.449Z,16.4
2017-08-09T00:10:35.853Z,16.5
2017-08-09T00:11:37.229Z,16.5
2017-08-09T00:12:38.610Z,16.5
2017-08-09T00:13:39.988Z,16.6
2017-08-09T00:14:41.365Z,16.5
2017-08-09T00:15:42.738Z,16.5
2017-08-09T00:16:44.121Z,16.5
2017-08-09T00:17:45.499Z,16.6
2017-08-09T00:18:46.875Z,16.4
2017-08-09T00:19:48.275Z,16.5
2017-08-09T00:20:49.642Z,16.4
2017-08-09T00:21:51.023Z,16.5
2017-08-09T00:22:52.409Z,16.4
2017-08-09T00:23:53.792Z,16.4
2017-08-09T00:24:55.174Z,16.4
2017-08-09T00:25:56.553Z,16.4
2017-08-09T00:26:57.927Z,16.4
2017-08-09T00:28:00.313Z,16.5
2017-08-09T00:29:01.687Z,16.5
2017-08-09T00:30:03.071Z,16.5
2017-08-09T00:31:04.482Z,16.4
2017-08-09T00:32:05.845Z,16.5
2017-08-09T00:33:07.228Z,16.5
2017-08-09T00:34:08.613Z,16.5
2017-08-09T00:35:09.990Z,16.5
2017-08-09T00:36:11.403Z,16.5
2017-08-09T00:37:12.780Z,16.8
2017-08-09T00:38:14.156Z,16.8
2017-08-09T00:39:15.532Z,16.7
2017-08-09T00:40:16.916Z,16.8
2017-08-09T00:41:18.292Z,16.7
2017-08-09T00:42:19.681Z,16.6
2017-08-09T00:43:21.061Z,16.7
2017-08-09T00:44:22.434Z,16.6
2017-08-09T00:45:23.830Z,16.7
2017-08-09T00:46:25.208Z,16.6
2017-08-09T00:47:26.578Z,16.7
2017-08-09T00:48:27.960Z,16.6
2017-08-09T00:49:29.334Z,16.6
2017-08-09T00:50:30.727Z,16.6
2017-08-09T00:51:32.098Z,16.6
2017-08-09T00:52:33.486Z,16.5
2017-08-09T00:53:34.872Z,16.5
2017-08-09T00:54:37.269Z,16.5
2017-08-09T00:55:38.647Z,16.5
2017-08-09T00:56:40.033Z,16.5
2017-08-09T00:57:41.402Z,16.6
2017-08-09T00:58:42.789Z,16.5
2017-08-09T00:59:44.173Z,16.6
2017-08-09T01:00:45.558Z,16.6
2017-08-09T01:01:46.929Z,16.7
2017-08-09T01:02:48.326Z,16.6
2017-08-09T01:03:49.690Z,16.6
2017-08-09T01:04:51.076Z,16.6
2017-08-09T01:05:52.465Z,16.7
2017-08-09T01:06:53.847Z,16.6
2017-08-09T01:07:55.243Z,16.7
2017-08-09T01:08:56.619Z,16.8
2017-08-09T01:09:57.993Z,16.7
2017-08-09T01:10:59.383Z,16.7
2017-08-09T01:12:00.772Z,16.8
2017-08-09T01:13:02.164Z,16.8
2017-08-09T01:14:03.538Z,16.7
2017-08-09T01:15:04.964Z,16.8
2017-08-09T01:16:06.336Z,16.8
2017-08-09T01:17:07.719Z,16.8
2017-08-09T01:18:09.109Z,16.7
2017-08-09T01:19:10.489Z,16.8
2017-08-09T01:20:11.888Z,16.8
2017-08-09T01:21:13.277Z,16.8
2017-08-09T01:22:14.671Z,16.7
2017-08-09T01:23:16.050Z,16.8
2017-08-09T01:24:17.439Z,16.8
2017-08-09T01:25:18.836Z,16.8
2017-08-09T01:26:20.203Z,16.8
2017-08-09T01:27:21.578Z,16.7
2017-08-09T01:28:22.967Z,16.8
2017-08-09T01:29:24.349Z,16.7
2017-08-09T01:30:25.732Z,16.6
2017-08-09T01:31:27.119Z,16.6
2017-08-09T01:32:28.516Z,16.6
2017-08-09T01:33:29.903Z,16.6
2017-08-09T01:34:31.305Z,16.6
2017-08-09T01:35:32.704Z,16.7
2017-08-09T01:36:34.100Z,16.6
2017-08-09T01:37:35.471Z,16.6
2017-08-09T01:38:36.876Z,16.6
2017-08-09T01:39:38.320Z,16.6
2017-08-09T01:40:39.716Z,16.6
2017-08-09T01:41:41.130Z,16.5
2017-08-09T01:42:42.542Z,16.5
2017-08-09T01:43:44.004Z,16.6
2017-08-09T01:44:45.448Z,16.5
2017-08-09T01:45:46.972Z,16.4
2017-08-09T01:46:48.506Z,16.4
2017-08-09T01:47:50.118Z,16.3
2017-08-09T01:48:51.736Z,16.3
2017-08-09T01:49:53.480Z,16.5
2017-08-09T01:50:55.093Z,16.4
2017-08-09T01:51:56.664Z,16.3
2017-08-09T01:52:58.248Z,16.3
2017-08-09T01:54:00.801Z,16.4
2017-08-09T01:55:02.406Z,16.3
2017-08-09T01:56:03.954Z,16.3
2017-08-09T01:57:05.511Z,16.5
2017-08-09T01:58:07.073Z,16.4
2017-08-09T01:59:08.691Z,16.3
2017-08-09T02:00:10.293Z,16.3
2017-08-09T02:01:11.893Z,16.2
2017-08-09T02:02:13.474Z,16.3
2017-08-09T02:03:15.041Z,16.2
2017-08-09T02:04:16.602Z,16.2
2017-08-09T02:05:18.214Z,16.3
2017-08-09T02:06:19.810Z,16.2
2017-08-09T02:07:21.374Z,16.3
2017-08-09T02:08:22.975Z,16.2
2017-08-09T02:09:24.544Z,16.2
2017-08-09T02:10:26.142Z,16.1
2017-08-09T02:11:27.755Z,16.1
2017-08-09T02:12:29.336Z,16.3
2017-08-09T02:13:30.928Z,16.1
2017-08-09T02:14:32.565Z,16.1
2017-08-09T02:15:34.133Z,16.2
2017-08-09T02:16:35.723Z,16.2
2017-08-09T02:17:37.361Z,16.2
2017-08-09T02:18:39.020Z,16.1
2017-08-09T02:19:40.590Z,16.0
2017-08-09T02:20:42.163Z,16.1
2017-08-09T02:21:43.772Z,16.0
2017-08-09T02:22:45.415Z,16.0
2017-08-09T02:23:46.981Z,16.0
2017-08-09T02:24:48.541Z,16.0
2017-08-09T02:25:50.094Z,16.0
2017-08-09T02:26:51.719Z,16.0
2017-08-09T02:27:53.274Z,16.0
2017-08-09T02:28:54.934Z,16.1
2017-08-09T02:29:56.503Z,16.0
2017-08-09T02:30:58.090Z,16.0
2017-08-09T02:31:59.676Z,15.9
2017-08-09T02:33:01.308Z,16.0
2017-08-09T02:34:02.886Z,16.1
2017-08-09T02:35:04.476Z,16.1
2017-08-09T02:36:06.008Z,16.1
2017-08-09T02:37:07.627Z,16.1
2017-08-09T02:38:09.222Z,16.0
2017-08-09T02:39:11.804Z,16.0
2017-08-09T02:40:13.382Z,15.9
2017-08-09T02:41:14.953Z,16.0
2017-08-09T02:42:16.462Z,16.0
2017-08-09T02:43:18.061Z,16.0
2017-08-09T02:44:19.540Z,15.9
2017-08-09T02:45:21.099Z,16.0
2017-08-09T02:46:22.617Z,15.8
2017-08-09T02:47:24.219Z,15.9
2017-08-09T02:48:25.835Z,15.9
2017-08-09T02:49:27.478Z,15.8
2017-08-09T02:50:29.041Z,15.9
2017-08-09T02:51:30.630Z,15.8
2017-08-09T02:52:32.245Z,15.7
2017-08-09T02:53:33.857Z,15.8
2017-08-09T02:54:35.463Z,15.8
2017-08-09T02:55:37.070Z,15.7
2017-08-09T02:56:38.668Z,15.8
2017-08-09T02:57:40.305Z,15.7
2017-08-09T02:58:41.886Z,15.7
2017-08-09T02:59:43.488Z,15.6
2017-08-09T03:00:45.088Z,15.8
2017-08-09T03:01:46.684Z,15.8
2017-08-09T03:02:48.244Z,15.8
2017-08-09T03:03:49.876Z,15.8
2017-08-09T03:04:51.438Z,15.8
2017-08-09T03:05:53.032Z,15.8
2017-08-09T03:06:54.618Z,15.7
2017-08-09T03:07:56.237Z,15.8
2017-08-09T03:08:57.853Z,15.7
2017-08-09T03:09:59.453Z,15.8
2017-08-09T03:11:01.053Z,15.6
2017-08-09T03:12:03.653Z,15.6
2017-08-09T03:13:05.179Z,15.6
2017-08-09T03:14:06.771Z,15.7
2017-08-09T03:15:08.415Z,15.7
2017-08-09T03:16:10.035Z,15.7
2017-08-09T03:17:11.627Z,15.6
2017-08-09T03:18:13.237Z,15.6
2017-08-09T03:19:14.886Z,15.6
2017-08-09T03:20:16.522Z,15.7
2017-08-09T03:21:18.133Z,15.5
2017-08-09T03:22:19.782Z,15.5
2017-08-09T03:23:21.391Z,15.5
2017-08-09T03:24:23.014Z,15.4
2017-08-09T03:25:24.610Z,15.5
2017-08-09T03:26:26.193Z,15.5
2017-08-09T03:27:27.767Z,15.4
2017-08-09T03:28:29.335Z,15.4
2017-08-09T03:29:30.905Z,15.4
2017-08-09T03:30:32.478Z,15.5
2017-08-09T03:31:34.089Z,15.4
2017-08-09T03:32:35.652Z,15.2
2017-08-09T03:33:37.267Z,15.3
2017-08-09T03:34:38.921Z,15.2
2017-08-09T03:35:40.505Z,15.2
2017-08-09T03:36:42.158Z,15.2
2017-08-09T03:37:43.770Z,15.2
2017-08-09T03:38:45.368Z,15.2
2017-08-09T03:39:46.930Z,15.2
2017-08-09T03:40:48.543Z,15.2
2017-08-09T03:41:50.148Z,15.1
2017-08-09T03:42:51.783Z,15.1
2017-08-09T03:43:53.345Z,15.1
2017-08-09T03:44:54.969Z,15.0
2017-08-09T03:45:56.657Z,15.0
2017-08-09T03:46:58.233Z,15.0
2017-08-09T03:47:59.785Z,15.1
2017-08-09T03:49:01.376Z,15.1
2017-08-09T03:50:02.931Z,15.1
2017-08-09T03:51:04.589Z,15.1
2017-08-09T03:52:06.162Z,15.0
2017-08-09T03:53:07.866Z,15.1
2017-08-09T03:54:09.652Z,15.1
2017-08-09T03:55:11.400Z,15.0
2017-08-09T03:56:13.210Z,15.0
2017-08-09T03:57:14.775Z,15.0
2017-08-09T03:58:16.334Z,14.9
2017-08-09T03:59:17.958Z,14.9
2017-08-09T04:00:19.596Z,14.8
2017-08-09T04:01:21.157Z,14.9
2017-08-09T04:02:22.713Z,14.9
2017-08-09T04:03:24.363Z,14.9
2017-08-09T04:04:26.033Z,14.9
2017-08-09T04:05:27.611Z,14.9
2017-08-09T04:06:29.242Z,14.8
2017-08-09T04:07:30.928Z,14.8
2017-08-09T04:08:32.509Z,14.7
2017-08-09T04:09:34.112Z,14.7
2017-08-09T04:10:35.754Z,14.7
2017-08-09T04:11:37.432Z,14.8
2017-08-09T04:12:39.126Z,14.9
2017-08-09T04:13:40.793Z,14.8
2017-08-09T04:14:42.424Z,14.8
2017-08-09T04:15:43.981Z,14.9
2017-08-09T04:16:45.546Z,14.9
2017-08-09T04:17:47.221Z,14.9
2017-08-09T04:18:48.819Z,14.9
2017-08-09T04:19:50.436Z,14.8
2017-08-09T04:20:51.983Z,14.8
2017-08-09T04:21:53.614Z,14.8
2017-08-09T04:22:55.120Z,14.7
2017-08-09T04:23:56.794Z,14.7
2017-08-09T04:24:58.357Z,14.7
2017-08-09T04:25:59.952Z,14.8
2017-08-09T04:27:01.503Z,14.8
2017-08-09T04:28:04.118Z,14.9
2017-08-09T04:29:05.669Z,14.9
2017-08-09T04:30:07.227Z,15.0
2017-08-09T04:31:08.831Z,15.1
2017-08-09T04:32:10.392Z,15.2
2017-08-09T04:33:11.930Z,15.1
2017-08-09T04:34:13.541Z,15.0
2017-08-09T04:35:15.167Z,15.0
2017-08-09T04:36:16.727Z,14.9
2017-08-09T04:37:18.316Z,14.8
2017-08-09T04:38:19.935Z,14.9
2017-08-09T04:39:21.516Z,14.8
2017-08-09T04:40:23.123Z,14.8
2017-08-09T04:41:24.693Z,14.8
2017-08-09T04:42:26.305Z,14.8
2017-08-09T04:43:27.862Z,14.8
2017-08-09T04:44:29.487Z,14.8
2017-08-09T04:45:31.073Z,14.8
2017-08-09T04:46:32.616Z,14.8
2017-08-09T04:47:34.176Z,14.7
2017-08-09T04:48:35.778Z,14.7
2017-08-09T04:49:37.344Z,14.8
2017-08-09T04:50:38.922Z,14.8
2017-08-09T04:51:40.465Z,14.8
2017-08-09T04:52:42.021Z,14.7
2017-08-09T04:53:43.580Z,14.7
2017-08-09T04:54:45.137Z,14.8
2017-08-09T04:55:46.651Z,14.8
2017-08-09T04:56:48.209Z,14.7
2017-08-09T04:57:49.784Z,14.8
2017-08-09T04:58:51.363Z,14.6
2017-08-09T04:59:52.922Z,14.7
2017-08-09T05:00:54.536Z,14.7
2017-08-09T05:01:56.085Z,14.7
2017-08-09T05:02:57.656Z,14.6
2017-08-09T05:03:59.287Z,14.6
2017-08-09T05:05:00.824Z,14.7
2017-08-09T05:06:02.350Z,14.7
2017-08-09T05:07:03.910Z,14.6
2017-08-09T05:08:05.455Z,14.6
2017-08-09T05:09:07.061Z,14.7
2017-08-09T05:10:08.741Z,14.7
2017-08-09T05:11:10.332Z,14.8
2017-08-09T05:12:11.913Z,14.8
2017-08-09T05:13:13.473Z,14.7
2017-08-09T05:14:15.039Z,14.8
2017-08-09T05:15:16.602Z,14.8
2017-08-09T05:16:18.171Z,14.8
2017-08-09T05:17:19.756Z,14.8
2017-08-09T05:18:21.340Z,14.7
2017-08-09T05:19:22.884Z,14.7
2017-08-09T05:20:24.420Z,14.8
2017-08-09T05:21:25.980Z,14.8
2017-08-09T05:22:27.496Z,14.8
2017-08-09T05:23:29.110Z,14.7
2017-08-09T05:24:30.753Z,14.8
2017-08-09T05:25:32.318Z,14.8
2017-08-09T05:26:33.839Z,14.7
2017-08-09T05:27:35.380Z,14.7
2017-08-09T05:28:36.881Z,14.6
2017-08-09T05:29:38.425Z,14.6
2017-08-09T05:30:39.946Z,14.7
2017-08-09T05:31:41.423Z,14.6
2017-08-09T05:32:42.923Z,14.7
2017-08-09T05:33:44.429Z,14.6
2017-08-09T05:34:46.003Z,14.6
2017-08-09T05:35:47.541Z,14.6
2017-08-09T05:36:49.099Z,14.7
2017-08-09T05:37:50.702Z,14.6
2017-08-09T05:38:52.288Z,14.7
2017-08-09T05:39:53.860Z,14.7
2017-08-09T05:40:55.376Z,14.8
2017-08-09T05:41:56.941Z,14.7
2017-08-09T05:42:58.526Z,14.6
2017-08-09T05:44:01.099Z,14.7
2017-08-09T05:45:02.680Z,14.8
2017-08-09T05:46:04.524Z,14.7
2017-08-09T05:47:06.088Z,14.8
2017-08-09T05:48:07.648Z,14.7
2017-08-09T05:49:09.223Z,14.8
2017-08-09T05:50:10.756Z,14.8
2017-08-09T05:51:12.284Z,14.8
2017-08-09T05:52:13.794Z,14.8
2017-08-09T05:53:15.346Z,14.7
2017-08-09T05:54:16.927Z,14.7
2017-08-09T05:55:18.445Z,14.7
2017-08-09T05:56:19.997Z,14.7
2017-08-09T05:57:21.522Z,14.8
2017-08-09T05:58:23.042Z,14.8
2017-08-09T05:59:24.644Z,14.8
2017-08-09T06:00:26.219Z,14.7
2017-08-09T06:01:27.841Z,14.8
2017-08-09T06:02:29.442Z,14.7
2017-08-09T06:03:30.955Z,14.8
2017-08-09T06:04:32.502Z,14.8
2017-08-09T06:05:34.057Z,14.7
2017-08-09T06:06:35.579Z,14.7
2017-08-09T06:07:37.155Z,14.7
2017-08-09T06:08:38.724Z,14.8
2017-08-09T06:09:40.221Z,14.8
2017-08-09T06:10:41.777Z,14.9
2017-08-09T06:11:43.249Z,15.0
2017-08-09T06:12:44.756Z,15.1
2017-08-09T06:13:46.293Z,15.5
2017-08-09T06:14:47.900Z,15.9
2017-08-09T06:15:49.445Z,16.3
2017-08-09T06:16:50.959Z,16.9
2017-08-09T06:17:52.539Z,17.1
2017-08-09T06:18:54.161Z,17.4
2017-08-09T06:19:55.621Z,17.8
2017-08-09T06:20:57.033Z,17.9
2017-08-09T06:21:58.495Z,18.0
2017-08-09T06:22:59.874Z,18.2
2017-08-09T06:24:01.328Z,18.4
2017-08-09T06:25:02.831Z,18.5
2017-08-09T06:26:04.256Z,18.4
2017-08-09T06:27:05.728Z,18.4
2017-08-09T06:28:07.319Z,18.4
2017-08-09T06:29:08.900Z,18.4
2017-08-09T06:30:10.467Z,18.3
2017-08-09T06:31:12.069Z,18.3
2017-08-09T06:32:13.676Z,18.5
2017-08-09T06:33:15.301Z,18.5
2017-08-09T06:34:16.905Z,18.6
2017-08-09T06:35:18.471Z,18.6
2017-08-09T06:36:20.047Z,18.6
2017-08-09T06:37:21.654Z,18.4
2017-08-09T06:38:23.280Z,18.5
2017-08-09T06:39:24.842Z,18.7
2017-08-09T06:40:26.420Z,19.0
2017-08-09T06:41:27.992Z,18.9
2017-08-09T06:42:29.552Z,18.9
2017-08-09T06:43:31.160Z,18.8
2017-08-09T06:44:32.744Z,18.9
2017-08-09T06:45:34.291Z,19.0
2017-08-09T06:46:35.835Z,19.2
2017-08-09T06:47:37.403Z,19.2
2017-08-09T06:48:39.038Z,19.1
2017-08-09T06:49:40.601Z,19.4
2017-08-09T06:50:42.182Z,19.6
2017-08-09T06:51:43.786Z,19.7
2017-08-09T06:52:45.312Z,19.7
2017-08-09T06:53:46.892Z,20.0
2017-08-09T06:54:48.428Z,20.0
2017-08-09T06:55:49.953Z,19.6
2017-08-09T06:56:51.496Z,19.4
2017-08-09T06:57:53.063Z,19.3
2017-08-09T06:58:54.585Z,19.5
2017-08-09T06:59:56.193Z,20.0
2017-08-09T07:01:36.470Z,20.0
2017-08-09T07:02:37.862Z,20.2
2017-08-09T07:03:39.254Z,20.0
2017-08-09T07:04:40.710Z,19.9
2017-08-09T07:05:42.149Z,19.4
2017-08-09T07:06:43.565Z,19.5
2017-08-09T07:07:44.990Z,19.8
2017-08-09T07:08:46.382Z,19.5
2017-08-09T07:09:47.777Z,19.8
2017-08-09T07:10:49.189Z,19.7
2017-08-09T07:11:50.612Z,19.3
2017-08-09T07:12:52.009Z,19.5
2017-08-09T07:13:53.413Z,19.5
2017-08-09T07:14:54.832Z,19.9
2017-08-09T07:15:56.298Z,20.1
2017-08-09T07:16:57.695Z,20.2
2017-08-09T07:17:59.112Z,20.5
2017-08-09T07:19:00.519Z,20.2
2017-08-09T07:20:01.962Z,20.3
2017-08-09T07:21:03.356Z,20.4
2017-08-09T07:22:04.749Z,20.1
2017-08-09T07:23:06.195Z,20.4
2017-08-09T07:24:07.628Z,20.5
2017-08-09T07:25:09.045Z,20.5
2017-08-09T07:26:10.470Z,20.5
2017-08-09T07:27:11.872Z,20.5
2017-08-09T07:28:13.282Z,20.7
2017-08-09T07:29:14.718Z,20.9
2017-08-09T07:30:16.115Z,20.8
2017-08-09T07:31:17.525Z,21.0
2017-08-09T07:32:18.975Z,21.1
2017-08-09T07:33:20.469Z,21.1
2017-08-09T07:34:21.973Z,21.2
2017-08-09T07:35:23.483Z,21.3
2017-08-09T07:36:25.158Z,21.1
2017-08-09T07:37:26.814Z,20.8
2017-08-09T07:38:28.466Z,21.0
2017-08-09T07:39:30.061Z,21.2
2017-08-09T07:40:31.682Z,21.4
2017-08-09T07:41:33.297Z,21.5
2017-08-09T07:42:34.905Z,21.6
2017-08-09T07:43:36.538Z,21.4
2017-08-09T07:44:38.124Z,21.4
2017-08-09T07:45:39.722Z,21.4
2017-08-09T07:46:41.371Z,21.1
2017-08-09T07:47:42.988Z,20.9
2017-08-09T07:48:44.559Z,21.0
2017-08-09T07:49:46.180Z,20.9
2017-08-09T07:50:47.689Z,21.0
2017-08-09T07:51:49.372Z,21.0
2017-08-09T07:52:50.886Z,21.0
2017-08-09T07:53:52.470Z,21.3
2017-08-09T07:54:54.011Z,21.6
2017-08-09T07:55:55.580Z,21.8
2017-08-09T07:56:57.145Z,21.9
2017-08-09T07:57:58.713Z,22.0
2017-08-09T07:59:01.308Z,21.9
2017-08-09T08:00:02.839Z,22.0
2017-08-09T08:01:36.476Z,21.9
2017-08-09T08:02:37.921Z,22.1
2017-08-09T08:03:39.318Z,22.2
2017-08-09T08:04:40.747Z,22.3
2017-08-09T08:05:42.148Z,22.5
2017-08-09T08:06:43.554Z,22.5
2017-08-09T08:07:44.959Z,22.4
2017-08-09T08:08:46.360Z,21.8
2017-08-09T08:09:47.795Z,22.0
2017-08-09T08:10:49.193Z,22.3
2017-08-09T08:11:50.609Z,22.4
2017-08-09T08:12:52.009Z,22.3
2017-08-09T08:13:53.414Z,22.3
2017-08-09T08:14:54.810Z,22.3
2017-08-09T08:15:56.204Z,22.5
2017-08-09T08:16:57.607Z,22.5
2017-08-09T08:17:59.002Z,22.7
2017-08-09T08:19:00.423Z,22.4
2017-08-09T08:20:01.841Z,22.6
2017-08-09T08:21:03.246Z,22.7
2017-08-09T08:22:04.749Z,22.5
2017-08-09T08:23:06.219Z,22.5
2017-08-09T08:24:07.696Z,22.2
2017-08-09T08:25:09.097Z,22.0
2017-08-09T08:26:10.533Z,22.2
2017-08-09T08:27:11.950Z,22.4
2017-08-09T08:28:13.368Z,22.4
2017-08-09T08:29:14.773Z,22.2
2017-08-09T08:30:16.179Z,21.5
2017-08-09T08:31:17.701Z,21.7
2017-08-09T08:32:19.119Z,22.2
2017-08-09T08:33:20.522Z,22.2
2017-08-09T08:34:22.068Z,22.2
2017-08-09T08:35:23.538Z,22.1
2017-08-09T08:36:24.943Z,22.4
2017-08-09T08:37:26.349Z,22.2
2017-08-09T08:38:27.752Z,22.6
2017-08-09T08:39:29.183Z,22.8
2017-08-09T08:40:30.616Z,22.9
2017-08-09T08:41:32.027Z,23.0
2017-08-09T08:42:33.430Z,23.0
2017-08-09T08:43:34.852Z,22.7
2017-08-09T08:44:36.269Z,22.2
2017-08-09T08:45:37.709Z,22.4
2017-08-09T08:46:39.149Z,22.5
2017-08-09T08:47:40.548Z,22.5
2017-08-09T08:48:41.960Z,22.5
2017-08-09T08:49:43.368Z,22.4
2017-08-09T08:50:45.796Z,22.4
2017-08-09T08:51:47.207Z,22.4
2017-08-09T08:52:48.608Z,22.6
2017-08-09T08:53:50.007Z,22.8
2017-08-09T08:54:51.572Z,23.0
2017-08-09T08:55:53.119Z,22.8
2017-08-09T08:56:54.515Z,23.0
2017-08-09T08:57:55.925Z,23.1
2017-08-09T08:58:57.390Z,23.0
2017-08-09T08:59:58.863Z,22.5
2017-08-09T09:01:36.616Z,22.8
2017-08-09T09:02:37.993Z,22.4
2017-08-09T09:03:39.400Z,22.3
2017-08-09T09:04:40.821Z,22.6
2017-08-09T09:05:42.228Z,22.9
2017-08-09T09:06:43.628Z,23.3
2017-08-09T09:07:45.067Z,23.1
2017-08-09T09:08:46.534Z,22.4
2017-08-09T09:09:48.007Z,22.0
2017-08-09T09:10:49.488Z,21.7
2017-08-09T09:11:51.062Z,22.0
2017-08-09T09:12:52.624Z,21.7
2017-08-09T09:13:54.199Z,21.9
2017-08-09T09:14:55.733Z,22.1
2017-08-09T09:15:58.388Z,22.3
2017-08-09T09:16:59.979Z,22.6
2017-08-09T09:18:01.639Z,22.2
2017-08-09T09:19:03.234Z,22.3
2017-08-09T09:20:04.933Z,22.3
2017-08-09T09:21:06.590Z,21.9
2017-08-09T09:22:08.254Z,22.0
2017-08-09T09:23:09.933Z,22.3
2017-08-09T09:24:11.490Z,22.8
2017-08-09T09:25:13.121Z,23.0
2017-08-09T09:26:14.679Z,22.8
2017-08-09T09:27:16.243Z,22.5
2017-08-09T09:28:17.813Z,22.5
2017-08-09T09:29:19.360Z,22.6
2017-08-09T09:30:21.000Z,22.8
2017-08-09T09:31:22.578Z,22.9
2017-08-09T09:32:24.180Z,23.1
2017-08-09T09:33:25.776Z,22.9
2017-08-09T09:34:27.408Z,23.2
2017-08-09T09:35:29.029Z,23.1
2017-08-09T09:36:30.656Z,23.0
2017-08-09T09:37:32.204Z,22.9
2017-08-09T09:38:33.768Z,23.2
2017-08-09T09:39:35.314Z,23.1
2017-08-09T09:40:36.995Z,23.1
2017-08-09T09:41:38.560Z,23.7
2017-08-09T09:42:40.186Z,23.7
2017-08-09T09:43:41.790Z,23.8
2017-08-09T09:44:43.365Z,24.2
2017-08-09T09:45:45.002Z,23.8
2017-08-09T09:46:46.554Z,23.9
2017-08-09T09:47:48.154Z,23.6
2017-08-09T09:48:49.828Z,23.6
2017-08-09T09:49:51.418Z,23.5
2017-08-09T09:50:53.123Z,23.3
2017-08-09T09:51:54.706Z,23.5
2017-08-09T09:52:56.431Z,23.1
2017-08-09T09:53:58.024Z,23.3
2017-08-09T09:54:59.676Z,23.5
2017-08-09T09:56:01.328Z,23.7
2017-08-09T09:57:02.951Z,23.8
2017-08-09T09:58:04.552Z,23.9
2017-08-09T09:59:06.156Z,23.8
2017-08-09T10:00:07.823Z,23.8
2017-08-09T10:01:36.614Z,23.6
2017-08-09T10:02:38.021Z,24.0
2017-08-09T10:03:39.436Z,24.2
2017-08-09T10:04:40.878Z,24.2
2017-08-09T10:05:42.292Z,23.9
2017-08-09T10:06:43.735Z,23.9
2017-08-09T10:07:46.486Z,24.2
2017-08-09T10:08:48.144Z,24.1
2017-08-09T10:09:49.689Z,23.9
2017-08-09T10:10:51.410Z,23.8
2017-08-09T10:11:53.074Z,23.7
2017-08-09T10:12:54.693Z,23.6
2017-08-09T10:13:56.433Z,23.4
2017-08-09T10:14:58.136Z,23.3
2017-08-09T10:15:59.901Z,23.4
2017-08-09T10:17:01.609Z,22.9
2017-08-09T10:18:03.379Z,23.1
2017-08-09T10:19:05.039Z,23.4
2017-08-09T10:20:06.822Z,23.9
2017-08-09T10:21:08.615Z,23.9
2017-08-09T10:22:10.315Z,23.9
2017-08-09T10:23:11.970Z,23.9
2017-08-09T10:24:14.667Z,23.9
2017-08-09T10:25:16.323Z,23.9
2017-08-09T10:26:17.997Z,23.9
2017-08-09T10:27:19.671Z,23.8
2017-08-09T10:28:21.242Z,23.4
2017-08-09T10:29:22.905Z,23.0
2017-08-09T10:30:24.527Z,23.4
2017-08-09T10:31:26.220Z,23.3
2017-08-09T10:32:27.861Z,23.3
2017-08-09T10:33:29.528Z,23.6
2017-08-09T10:34:31.239Z,23.7
2017-08-09T10:35:32.901Z,23.9
2017-08-09T10:36:34.717Z,24.1
2017-08-09T10:37:36.382Z,24.2
2017-08-09T10:38:38.035Z,24.0
2017-08-09T10:39:39.708Z,24.1
2017-08-09T10:40:41.398Z,23.8
2017-08-09T10:41:43.026Z,23.9
2017-08-09T10:42:44.773Z,23.9
2017-08-09T10:43:46.440Z,23.7
2017-08-09T10:44:48.114Z,23.8
2017-08-09T10:45:49.813Z,24.3
2017-08-09T10:46:51.575Z,24.1
2017-08-09T10:47:53.198Z,24.1
2017-08-09T10:48:54.869Z,23.9
2017-08-09T10:49:56.555Z,24.0
2017-08-09T10:50:58.250Z,24.4
2017-08-09T10:51:59.920Z,24.5
2017-08-09T10:53:01.597Z,24.7
2017-08-09T10:54:03.302Z,24.9
2017-08-09T10:55:05.010Z,24.4
2017-08-09T10:56:06.693Z,24.6
2017-08-09T10:57:08.368Z,25.1
2017-08-09T10:58:10.058Z,25.2
2017-08-09T10:59:11.714Z,24.9
2017-08-09T11:00:13.398Z,24.8
2017-08-09T11:01:15.083Z,25.2
2017-08-09T11:02:16.763Z,25.1
2017-08-09T11:03:18.393Z,24.4
2017-08-09T11:04:20.012Z,24.3
2017-08-09T11:05:21.681Z,24.1
2017-08-09T11:06:23.355Z,23.7
2017-08-09T11:07:25.006Z,23.6
2017-08-09T11:08:26.711Z,23.7
2017-08-09T11:09:28.353Z,23.9
2017-08-09T11:10:30.053Z,24.2
2017-08-09T11:11:31.731Z,24.2
2017-08-09T11:12:33.420Z,24.6
2017-08-09T11:13:35.122Z,24.5
2017-08-09T11:14:36.873Z,24.7
2017-08-09T11:15:38.639Z,24.4
2017-08-09T11:16:40.305Z,24.2
2017-08-09T11:17:41.971Z,24.0
2017-08-09T11:18:43.719Z,24.0
2017-08-09T11:19:45.323Z,24.0
2017-08-09T11:20:46.966Z,23.8
2017-08-09T11:21:50.592Z,23.6
2017-08-09T11:22:52.233Z,23.6
2017-08-09T11:23:53.900Z,23.2
2017-08-09T11:24:55.593Z,23.3
2017-08-09T11:25:57.218Z,23.8
2017-08-09T11:26:58.825Z,23.9
2017-08-09T11:28:00.468Z,24.1
2017-08-09T11:29:02.128Z,24.5
2017-08-09T11:30:03.776Z,24.6
2017-08-09T11:31:05.505Z,24.7
2017-08-09T11:32:07.250Z,23.9
2017-08-09T11:33:08.968Z,23.9
2017-08-09T11:34:10.643Z,24.0
2017-08-09T11:35:12.358Z,24.4
2017-08-09T11:36:15.045Z,24.8
2017-08-09T11:37:16.687Z,25.0
2017-08-09T11:38:18.473Z,25.1
2017-08-09T11:39:20.187Z,24.8
2017-08-09T11:40:22.135Z,24.6
2017-08-09T11:41:23.876Z,24.4
2017-08-09T11:42:25.762Z,24.5
2017-08-09T11:43:27.400Z,24.5
2017-08-09T11:44:29.123Z,24.3
2017-08-09T11:45:30.771Z,24.2
2017-08-09T11:46:33.500Z,24.3
2017-08-09T11:47:35.254Z,24.5
2017-08-09T11:48:37.012Z,24.7
2017-08-09T11:49:38.794Z,24.8
2017-08-09T11:50:40.509Z,24.9
2017-08-09T11:51:42.186Z,24.0
2017-08-09T11:52:43.852Z,24.1
2017-08-09T11:53:45.482Z,24.2
2017-08-09T11:54:47.130Z,24.3
2017-08-09T11:55:48.842Z,24.5
2017-08-09T11:56:50.522Z,24.6
2017-08-09T11:57:52.234Z,24.7
2017-08-09T11:58:54.093Z,24.4
2017-08-09T11:59:55.880Z,24.2
2017-08-09T12:00:57.596Z,24.4
2017-08-09T12:01:59.320Z,24.5
2017-08-09T12:03:01.156Z,24.6
2017-08-09T12:04:02.814Z,24.7
2017-08-09T12:05:04.659Z,24.6
2017-08-09T12:06:06.381Z,24.2
2017-08-09T12:07:08.274Z,24.3
2017-08-09T12:08:10.085Z,24.5
2017-08-09T12:09:11.749Z,24.7
2017-08-09T12:10:13.450Z,24.7
2017-08-09T12:11:15.085Z,24.8
2017-08-09T12:12:16.900Z,24.4
2017-08-09T12:13:18.668Z,24.2
2017-08-09T12:14:20.491Z,24.0
2017-08-09T12:15:22.170Z,24.3
2017-08-09T12:16:23.825Z,24.6
2017-08-09T12:17:25.646Z,24.8
2017-08-09T12:18:27.360Z,24.9
2017-08-09T12:19:29.132Z,25.0
2017-08-09T12:20:30.950Z,25.1
2017-08-09T12:21:32.653Z,25.0
2017-08-09T12:22:34.353Z,25.0
2017-08-09T12:23:36.127Z,24.9
2017-08-09T12:24:37.955Z,25.0
2017-08-09T12:25:39.778Z,24.8
2017-08-09T12:26:41.577Z,25.1
2017-08-09T12:27:43.345Z,25.0
2017-08-09T12:28:45.076Z,24.8
2017-08-09T12:29:46.806Z,24.9
2017-08-09T12:30:48.775Z,25.2
2017-08-09T12:31:50.507Z,25.6
2017-08-09T12:32:52.343Z,25.9
2017-08-09T12:33:54.007Z,25.8
2017-08-09T12:34:56.027Z,25.8
2017-08-09T12:35:57.813Z,25.6
2017-08-09T12:36:59.548Z,25.5
2017-08-09T12:38:01.283Z,25.8
2017-08-09T12:39:03.062Z,25.5
2017-08-09T12:40:04.779Z,25.0
2017-08-09T12:41:06.542Z,24.9
2017-08-09T12:42:08.373Z,25.0
2017-08-09T12:43:10.035Z,25.2
2017-08-09T12:44:11.830Z,25.6
2017-08-09T12:45:13.567Z,25.9
2017-08-09T12:46:15.278Z,25.8
2017-08-09T12:47:17.080Z,25.6
2017-08-09T12:48:18.820Z,25.6
2017-08-09T12:49:20.603Z,25.4
2017-08-09T12:50:22.285Z,25.2
2017-08-09T12:51:24.016Z,25.0
2017-08-09T12:52:25.834Z,24.8
2017-08-09T12:53:27.582Z,24.9
2017-08-09T12:54:29.342Z,25.1
2017-08-09T12:55:31.073Z,25.2
2017-08-09T12:56:32.743Z,25.1
2017-08-09T12:57:34.507Z,24.7
2017-08-09T12:58:36.441Z,24.6
2017-08-09T12:59:38.088Z,24.7
2017-08-09T13:00:39.791Z,24.9
2017-08-09T13:01:41.632Z,24.7
2017-08-09T13:02:43.302Z,24.8
2017-08-09T13:03:44.967Z,24.7
2017-08-09T13:04:46.680Z,24.8
2017-08-09T13:05:48.464Z,24.6
2017-08-09T13:06:50.140Z,24.4
2017-08-09T13:07:51.908Z,24.4
2017-08-09T13:08:53.707Z,24.7
2017-08-09T13:09:55.394Z,24.7
2017-08-09T13:10:57.101Z,25.0
2017-08-09T13:11:58.878Z,25.0
2017-08-09T13:13:00.653Z,25.2
2017-08-09T13:14:02.333Z,25.2
2017-08-09T13:15:04.021Z,25.2
2017-08-09T13:16:05.826Z,25.2
2017-08-09T13:17:07.608Z,25.2
2017-08-09T13:18:09.273Z,25.5
2017-08-09T13:19:10.930Z,25.6
2017-08-09T13:20:12.602Z,25.6
2017-08-09T13:21:14.328Z,25.4
2017-08-09T13:22:16.096Z,25.6
2017-08-09T13:23:17.789Z,25.6
2017-08-09T13:24:19.482Z,25.7
2017-08-09T13:25:21.188Z,25.6
2017-08-09T13:26:22.848Z,25.5
2017-08-09T13:27:24.557Z,25.6
2017-08-09T13:28:26.306Z,25.6
2017-08-09T13:29:28.044Z,25.8
2017-08-09T13:30:29.804Z,26.0
2017-08-09T13:31:31.530Z,25.9
2017-08-09T13:32:33.286Z,25.7
2017-08-09T13:33:34.932Z,25.6
2017-08-09T13:34:36.661Z,25.6
2017-08-09T13:35:38.399Z,25.5
2017-08-09T13:36:40.071Z,25.2
2017-08-09T13:37:42.012Z,25.2
2017-08-09T13:38:43.704Z,25.2
2017-08-09T13:39:45.507Z,25.4
2017-08-09T13:40:47.139Z,25.4
2017-08-09T13:41:48.874Z,25.5